sensor_id;sensor_type;location;lat;lon;timestamp;P1;durP1;ratioP1;P2;durP2;ratioP2
13967;SDS011;39536;52.198;9.920;2023-09-12T00:00:22;18.47;;;13.23;;
13967;SDS011;39536;52.198;9.920;2023-09-12T00:02:49;15.07;;;13.53;;
13967;SDS011;39536;52.198;9.920;2023-09-12T00:05:16;14.87;;;13.20;;
13967;SDS011;39536;52.198;9.920;2023-09-12T00:07:42;13.47;;;12.27;;
13967;SDS011;39536;52.198;9.920;2023-09-12T00:10:09;15.60;;;14.10;;
13967;SDS011;39536;52.198;9.920;2023-09-12T00:12:37;15.43;;;13.40;;
13967;SDS011;39536;52.198;9.920;2023-09-12T00:15:04;15.77;;;13.70;;
13967;SDS011;39536;52.198;9.920;2023-09-12T00:17:31;13.43;;;12.07;;
13967;SDS011;39536;52.198;9.920;2023-09-12T00:19:57;16.80;;;13.10;;
13967;SDS011;39536;52.198;9.920;2023-09-12T00:22:24;16.90;;;12.87;;
13967;SDS011;39536;52.198;9.920;2023-09-12T00:24:51;18.40;;;13.27;;
13967;SDS011;39536;52.198;9.920;2023-09-12T00:27:17;14.53;;;13.13;;
13967;SDS011;39536;52.198;9.920;2023-09-12T00:29:45;14.70;;;13.40;;
13967;SDS011;39536;52.198;9.920;2023-09-12T00:32:12;15.07;;;13.83;;
13967;SDS011;39536;52.198;9.920;2023-09-12T00:34:39;16.93;;;14.80;;
13967;SDS011;39536;52.198;9.920;2023-09-12T00:37:05;16.33;;;14.97;;
13967;SDS011;39536;52.198;9.920;2023-09-12T00:39:32;18.97;;;14.97;;
13967;SDS011;39536;52.198;9.920;2023-09-12T00:41:58;17.10;;;15.70;;
13967;SDS011;39536;52.198;9.920;2023-09-12T00:44:25;19.17;;;16.43;;
13967;SDS011;39536;52.198;9.920;2023-09-12T00:46:53;16.03;;;14.57;;
13967;SDS011;39536;52.198;9.920;2023-09-12T00:49:22;16.70;;;15.10;;
13967;SDS011;39536;52.198;9.920;2023-09-12T00:51:50;17.50;;;15.90;;
13967;SDS011;39536;52.198;9.920;2023-09-12T00:54:17;16.03;;;14.60;;
13967;SDS011;39536;52.198;9.920;2023-09-12T00:56:44;18.53;;;16.50;;
13967;SDS011;39536;52.198;9.920;2023-09-12T00:59:11;18.03;;;16.23;;
13967;SDS011;39536;52.198;9.920;2023-09-12T01:01:40;16.73;;;15.17;;
13967;SDS011;39536;52.198;9.920;2023-09-12T01:04:08;17.70;;;16.13;;
13967;SDS011;39536;52.198;9.920;2023-09-12T01:06:35;17.10;;;15.67;;
13967;SDS011;39536;52.198;9.920;2023-09-12T01:09:03;17.43;;;15.60;;
13967;SDS011;39536;52.198;9.920;2023-09-12T01:11:30;16.47;;;15.33;;
13967;SDS011;39536;52.198;9.920;2023-09-12T01:13:57;17.10;;;15.77;;
13967;SDS011;39536;52.198;9.920;2023-09-12T01:16:24;19.37;;;17.33;;
13967;SDS011;39536;52.198;9.920;2023-09-12T01:18:51;19.90;;;17.60;;
13967;SDS011;39536;52.198;9.920;2023-09-12T01:21:31;18.30;;;16.80;;
13967;SDS011;39536;52.198;9.920;2023-09-12T01:24:15;19.60;;;17.50;;
13967;SDS011;39536;52.198;9.920;2023-09-12T01:27:20;18.70;;;17.23;;
13967;SDS011;39536;52.198;9.920;2023-09-12T01:29:49;18.20;;;16.80;;
13967;SDS011;39536;52.198;9.920;2023-09-12T01:32:21;18.43;;;17.00;;
13967;SDS011;39536;52.198;9.920;2023-09-12T01:34:47;17.77;;;15.93;;
13967;SDS011;39536;52.198;9.920;2023-09-12T01:37:14;18.30;;;16.87;;
13967;SDS011;39536;52.198;9.920;2023-09-12T01:39:41;17.37;;;16.17;;
13967;SDS011;39536;52.198;9.920;2023-09-12T01:42:08;19.50;;;17.67;;
13967;SDS011;39536;52.198;9.920;2023-09-12T01:44:41;18.67;;;17.23;;
13967;SDS011;39536;52.198;9.920;2023-09-12T01:47:10;16.57;;;15.47;;
13967;SDS011;39536;52.198;9.920;2023-09-12T01:49:38;20.80;;;16.33;;
13967;SDS011;39536;52.198;9.920;2023-09-12T01:52:08;16.97;;;15.33;;
13967;SDS011;39536;52.198;9.920;2023-09-12T01:54:36;17.30;;;16.07;;
13967;SDS011;39536;52.198;9.920;2023-09-12T01:57:04;18.87;;;17.17;;
13967;SDS011;39536;52.198;9.920;2023-09-12T01:59:31;16.63;;;15.30;;
13967;SDS011;39536;52.198;9.920;2023-09-12T02:01:59;17.27;;;15.80;;
13967;SDS011;39536;52.198;9.920;2023-09-12T02:04:26;17.13;;;15.47;;
13967;SDS011;39536;52.198;9.920;2023-09-12T02:06:53;17.00;;;15.63;;
13967;SDS011;39536;52.198;9.920;2023-09-12T02:09:19;18.10;;;16.50;;
13967;SDS011;39536;52.198;9.920;2023-09-12T02:11:47;19.23;;;17.53;;
13967;SDS011;39536;52.198;9.920;2023-09-12T02:14:14;19.03;;;17.50;;
13967;SDS011;39536;52.198;9.920;2023-09-12T02:16:41;18.53;;;16.40;;
13967;SDS011;39536;52.198;9.920;2023-09-12T02:19:08;17.97;;;16.30;;
13967;SDS011;39536;52.198;9.920;2023-09-12T02:21:35;19.00;;;17.30;;
13967;SDS011;39536;52.198;9.920;2023-09-12T02:24:02;19.20;;;17.60;;
13967;SDS011;39536;52.198;9.920;2023-09-12T02:26:29;17.70;;;16.13;;
13967;SDS011;39536;52.198;9.920;2023-09-12T02:29:01;19.03;;;17.30;;
13967;SDS011;39536;52.198;9.920;2023-09-12T02:31:27;21.17;;;19.03;;
13967;SDS011;39536;52.198;9.920;2023-09-12T02:33:54;21.10;;;19.30;;
13967;SDS011;39536;52.198;9.920;2023-09-12T02:36:22;21.57;;;19.70;;
13967;SDS011;39536;52.198;9.920;2023-09-12T02:38:48;20.73;;;18.87;;
13967;SDS011;39536;52.198;9.920;2023-09-12T02:41:15;22.70;;;20.83;;
13967;SDS011;39536;52.198;9.920;2023-09-12T02:43:42;24.43;;;22.33;;
13967;SDS011;39536;52.198;9.920;2023-09-12T02:46:08;24.53;;;22.20;;
13967;SDS011;39536;52.198;9.920;2023-09-12T02:48:35;22.87;;;20.57;;
13967;SDS011;39536;52.198;9.920;2023-09-12T02:51:02;23.80;;;21.47;;
13967;SDS011;39536;52.198;9.920;2023-09-12T02:53:30;22.97;;;20.63;;
13967;SDS011;39536;52.198;9.920;2023-09-12T02:55:56;24.07;;;20.67;;
13967;SDS011;39536;52.198;9.920;2023-09-12T02:58:23;23.33;;;21.43;;
13967;SDS011;39536;52.198;9.920;2023-09-12T03:00:49;22.87;;;20.57;;
13967;SDS011;39536;52.198;9.920;2023-09-12T03:03:19;24.23;;;21.70;;
13967;SDS011;39536;52.198;9.920;2023-09-12T03:05:46;24.37;;;22.07;;
13967;SDS011;39536;52.198;9.920;2023-09-12T03:08:12;26.47;;;23.90;;
13967;SDS011;39536;52.198;9.920;2023-09-12T03:10:40;25.13;;;22.90;;
13967;SDS011;39536;52.198;9.920;2023-09-12T03:13:07;25.60;;;23.23;;
13967;SDS011;39536;52.198;9.920;2023-09-12T03:15:37;25.03;;;23.13;;
13967;SDS011;39536;52.198;9.920;2023-09-12T03:18:04;24.87;;;22.47;;
13967;SDS011;39536;52.198;9.920;2023-09-12T03:20:31;24.30;;;22.07;;
13967;SDS011;39536;52.198;9.920;2023-09-12T03:22:57;25.40;;;23.37;;
13967;SDS011;39536;52.198;9.920;2023-09-12T03:25:24;25.27;;;22.67;;
13967;SDS011;39536;52.198;9.920;2023-09-12T03:27:52;26.27;;;22.57;;
13967;SDS011;39536;52.198;9.920;2023-09-12T03:30:19;25.27;;;22.93;;
13967;SDS011;39536;52.198;9.920;2023-09-12T03:32:46;24.50;;;22.53;;
13967;SDS011;39536;52.198;9.920;2023-09-12T03:35:13;23.73;;;21.77;;
13967;SDS011;39536;52.198;9.920;2023-09-12T03:37:39;23.33;;;21.63;;
13967;SDS011;39536;52.198;9.920;2023-09-12T03:40:08;26.03;;;23.33;;
13967;SDS011;39536;52.198;9.920;2023-09-12T03:42:36;22.97;;;21.13;;
13967;SDS011;39536;52.198;9.920;2023-09-12T03:45:05;24.47;;;22.27;;
13967;SDS011;39536;52.198;9.920;2023-09-12T03:47:32;25.30;;;22.80;;
13967;SDS011;39536;52.198;9.920;2023-09-12T03:49:58;25.10;;;22.63;;
13967;SDS011;39536;52.198;9.920;2023-09-12T03:52:25;25.73;;;23.50;;
13967;SDS011;39536;52.198;9.920;2023-09-12T03:54:51;25.53;;;23.33;;
13967;SDS011;39536;52.198;9.920;2023-09-12T03:57:18;25.73;;;23.27;;
13967;SDS011;39536;52.198;9.920;2023-09-12T03:59:45;26.47;;;23.80;;
13967;SDS011;39536;52.198;9.920;2023-09-12T04:02:13;27.13;;;24.30;;
13967;SDS011;39536;52.198;9.920;2023-09-12T04:04:40;26.57;;;23.97;;
13967;SDS011;39536;52.198;9.920;2023-09-12T04:07:07;25.80;;;23.67;;
13967;SDS011;39536;52.198;9.920;2023-09-12T04:09:34;26.33;;;24.23;;
13967;SDS011;39536;52.198;9.920;2023-09-12T04:12:00;26.70;;;24.27;;
13967;SDS011;39536;52.198;9.920;2023-09-12T04:29:51;25.53;;;23.53;;
13967;SDS011;39536;52.198;9.920;2023-09-12T04:32:17;27.17;;;24.70;;
13967;SDS011;39536;52.198;9.920;2023-09-12T04:34:48;29.90;;;26.07;;
13967;SDS011;39536;52.198;9.920;2023-09-12T04:37:15;27.77;;;25.30;;
13967;SDS011;39536;52.198;9.920;2023-09-12T04:39:41;27.67;;;24.97;;
13967;SDS011;39536;52.198;9.920;2023-09-12T04:42:08;25.90;;;23.43;;
13967;SDS011;39536;52.198;9.920;2023-09-12T04:44:35;26.13;;;24.00;;
13967;SDS011;39536;52.198;9.920;2023-09-12T04:47:03;26.20;;;24.10;;
13967;SDS011;39536;52.198;9.920;2023-09-12T04:49:30;25.80;;;23.80;;
13967;SDS011;39536;52.198;9.920;2023-09-12T04:51:56;26.30;;;24.40;;
13967;SDS011;39536;52.198;9.920;2023-09-12T04:54:23;25.90;;;23.70;;
13967;SDS011;39536;52.198;9.920;2023-09-12T04:56:50;26.40;;;24.50;;
13967;SDS011;39536;52.198;9.920;2023-09-12T05:19:10;27.50;;;25.10;;
13967;SDS011;39536;52.198;9.920;2023-09-12T05:21:37;26.80;;;24.23;;
13967;SDS011;39536;52.198;9.920;2023-09-12T05:24:04;25.67;;;23.90;;
13967;SDS011;39536;52.198;9.920;2023-09-12T05:26:31;27.00;;;24.87;;
13967;SDS011;39536;52.198;9.920;2023-09-12T05:28:58;26.70;;;24.47;;
13967;SDS011;39536;52.198;9.920;2023-09-12T05:31:24;25.10;;;23.13;;
13967;SDS011;39536;52.198;9.920;2023-09-12T05:33:51;26.33;;;24.23;;
13967;SDS011;39536;52.198;9.920;2023-09-12T05:36:19;24.80;;;22.77;;
13967;SDS011;39536;52.198;9.920;2023-09-12T05:38:46;23.93;;;22.10;;
13967;SDS011;39536;52.198;9.920;2023-09-12T05:41:12;26.60;;;24.50;;
13967;SDS011;39536;52.198;9.920;2023-09-12T05:43:39;24.33;;;22.27;;
13967;SDS011;39536;52.198;9.920;2023-09-12T05:46:06;24.40;;;22.57;;
13967;SDS011;39536;52.198;9.920;2023-09-12T05:48:32;23.40;;;21.37;;
13967;SDS011;39536;52.198;9.920;2023-09-12T05:50:59;25.20;;;22.67;;
13967;SDS011;39536;52.198;9.920;2023-09-12T05:53:27;24.87;;;22.70;;
13967;SDS011;39536;52.198;9.920;2023-09-12T05:55:54;25.23;;;22.90;;
13967;SDS011;39536;52.198;9.920;2023-09-12T05:58:21;25.03;;;22.40;;
13967;SDS011;39536;52.198;9.920;2023-09-12T06:00:47;25.43;;;22.77;;
13967;SDS011;39536;52.198;9.920;2023-09-12T06:03:14;27.33;;;23.57;;
13967;SDS011;39536;52.198;9.920;2023-09-12T06:05:41;25.93;;;24.07;;
13967;SDS011;39536;52.198;9.920;2023-09-12T06:08:08;27.40;;;25.13;;
13967;SDS011;39536;52.198;9.920;2023-09-12T06:10:36;27.90;;;25.13;;
13967;SDS011;39536;52.198;9.920;2023-09-12T06:13:03;26.87;;;24.40;;
13967;SDS011;39536;52.198;9.920;2023-09-12T06:15:29;26.63;;;24.63;;
13967;SDS011;39536;52.198;9.920;2023-09-12T06:17:56;30.17;;;27.20;;
13967;SDS011;39536;52.198;9.920;2023-09-12T06:20:23;28.33;;;25.13;;
13967;SDS011;39536;52.198;9.920;2023-09-12T06:22:49;29.03;;;26.03;;
13967;SDS011;39536;52.198;9.920;2023-09-12T06:25:16;28.50;;;26.30;;
13967;SDS011;39536;52.198;9.920;2023-09-12T06:27:44;28.50;;;26.03;;
13967;SDS011;39536;52.198;9.920;2023-09-12T06:30:11;28.93;;;26.20;;
13967;SDS011;39536;52.198;9.920;2023-09-12T06:32:39;30.20;;;26.60;;
13967;SDS011;39536;52.198;9.920;2023-09-12T06:35:06;29.10;;;26.57;;
13967;SDS011;39536;52.198;9.920;2023-09-12T06:37:35;29.40;;;26.40;;
13967;SDS011;39536;52.198;9.920;2023-09-12T06:40:02;30.03;;;27.23;;
13967;SDS011;39536;52.198;9.920;2023-09-12T06:42:29;31.73;;;28.37;;
13967;SDS011;39536;52.198;9.920;2023-09-12T06:44:57;33.60;;;29.23;;
13967;SDS011;39536;52.198;9.920;2023-09-12T06:47:24;32.70;;;26.93;;
13967;SDS011;39536;52.198;9.920;2023-09-12T06:49:51;30.43;;;27.23;;
13967;SDS011;39536;52.198;9.920;2023-09-12T06:52:17;30.37;;;27.10;;
13967;SDS011;39536;52.198;9.920;2023-09-12T06:54:44;30.07;;;27.50;;
13967;SDS011;39536;52.198;9.920;2023-09-12T06:57:11;31.57;;;28.57;;
13967;SDS011;39536;52.198;9.920;2023-09-12T06:59:38;28.07;;;25.47;;
13967;SDS011;39536;52.198;9.920;2023-09-12T07:02:06;28.30;;;25.67;;
13967;SDS011;39536;52.198;9.920;2023-09-12T07:04:33;28.27;;;25.90;;
13967;SDS011;39536;52.198;9.920;2023-09-12T07:07:00;30.43;;;27.50;;
13967;SDS011;39536;52.198;9.920;2023-09-12T07:09:27;31.77;;;28.30;;
13967;SDS011;39536;52.198;9.920;2023-09-12T07:11:53;30.83;;;27.73;;
13967;SDS011;39536;52.198;9.920;2023-09-12T07:14:20;33.53;;;30.47;;
13967;SDS011;39536;52.198;9.920;2023-09-12T07:16:46;31.77;;;29.10;;
13967;SDS011;39536;52.198;9.920;2023-09-12T07:19:14;33.07;;;29.90;;
13967;SDS011;39536;52.198;9.920;2023-09-12T07:21:41;30.13;;;27.40;;
13967;SDS011;39536;52.198;9.920;2023-09-12T07:24:08;28.63;;;26.10;;
13967;SDS011;39536;52.198;9.920;2023-09-12T07:26:34;27.43;;;25.23;;
13967;SDS011;39536;52.198;9.920;2023-09-12T07:29:01;26.17;;;23.60;;
13967;SDS011;39536;52.198;9.920;2023-09-12T07:31:30;28.03;;;25.57;;
13967;SDS011;39536;52.198;9.920;2023-09-12T07:33:57;30.33;;;27.27;;
13967;SDS011;39536;52.198;9.920;2023-09-12T07:36:25;30.10;;;27.30;;
13967;SDS011;39536;52.198;9.920;2023-09-12T07:38:52;29.17;;;26.63;;
13967;SDS011;39536;52.198;9.920;2023-09-12T07:41:18;27.83;;;25.73;;
13967;SDS011;39536;52.198;9.920;2023-09-12T07:43:45;27.57;;;25.03;;
13967;SDS011;39536;52.198;9.920;2023-09-12T07:46:12;28.60;;;25.83;;
13967;SDS011;39536;52.198;9.920;2023-09-12T07:48:38;24.87;;;22.93;;
13967;SDS011;39536;52.198;9.920;2023-09-12T07:51:11;24.27;;;22.27;;
13967;SDS011;39536;52.198;9.920;2023-09-12T07:53:40;24.43;;;21.97;;
13967;SDS011;39536;52.198;9.920;2023-09-12T07:56:08;20.13;;;18.73;;
13967;SDS011;39536;52.198;9.920;2023-09-12T07:58:35;20.70;;;18.83;;
13967;SDS011;39536;52.198;9.920;2023-09-12T08:01:04;17.53;;;16.27;;
13967;SDS011;39536;52.198;9.920;2023-09-12T08:03:32;15.93;;;14.87;;
13967;SDS011;39536;52.198;9.920;2023-09-12T08:05:58;17.70;;;16.10;;
13967;SDS011;39536;52.198;9.920;2023-09-12T08:08:25;15.90;;;14.60;;
13967;SDS011;39536;52.198;9.920;2023-09-12T08:10:54;15.57;;;14.43;;
13967;SDS011;39536;52.198;9.920;2023-09-12T08:13:22;19.33;;;17.47;;
13967;SDS011;39536;52.198;9.920;2023-09-12T08:15:49;20.70;;;18.73;;
13967;SDS011;39536;52.198;9.920;2023-09-12T08:18:15;23.47;;;21.23;;
13967;SDS011;39536;52.198;9.920;2023-09-12T08:20:42;23.60;;;21.37;;
13967;SDS011;39536;52.198;9.920;2023-09-12T08:23:09;22.10;;;20.30;;
13967;SDS011;39536;52.198;9.920;2023-09-12T08:25:36;23.33;;;21.47;;
13967;SDS011;39536;52.198;9.920;2023-09-12T08:28:04;22.10;;;20.50;;
13967;SDS011;39536;52.198;9.920;2023-09-12T08:30:31;21.67;;;19.90;;
13967;SDS011;39536;52.198;9.920;2023-09-12T08:32:58;21.60;;;19.80;;
13967;SDS011;39536;52.198;9.920;2023-09-12T08:35:27;20.90;;;19.30;;
13967;SDS011;39536;52.198;9.920;2023-09-12T08:37:54;18.83;;;17.47;;
13967;SDS011;39536;52.198;9.920;2023-09-12T08:40:21;17.40;;;16.23;;
13967;SDS011;39536;52.198;9.920;2023-09-12T08:42:48;16.67;;;15.27;;
13967;SDS011;39536;52.198;9.920;2023-09-12T08:45:19;14.43;;;13.53;;
13967;SDS011;39536;52.198;9.920;2023-09-12T08:47:48;13.87;;;12.87;;
13967;SDS011;39536;52.198;9.920;2023-09-12T08:50:16;18.23;;;16.83;;
13967;SDS011;39536;52.198;9.920;2023-09-12T08:52:43;19.97;;;18.67;;
13967;SDS011;39536;52.198;9.920;2023-09-12T08:55:11;22.17;;;20.43;;
13967;SDS011;39536;52.198;9.920;2023-09-12T08:57:39;21.70;;;20.10;;
13967;SDS011;39536;52.198;9.920;2023-09-12T09:00:07;22.83;;;20.93;;
13967;SDS011;39536;52.198;9.920;2023-09-12T09:02:39;23.43;;;21.83;;
13967;SDS011;39536;52.198;9.920;2023-09-12T09:05:07;23.43;;;21.53;;
13967;SDS011;39536;52.198;9.920;2023-09-12T09:07:35;24.47;;;22.27;;
13967;SDS011;39536;52.198;9.920;2023-09-12T09:10:04;23.47;;;21.73;;
13967;SDS011;39536;52.198;9.920;2023-09-12T09:12:32;23.50;;;21.63;;
13967;SDS011;39536;52.198;9.920;2023-09-12T09:14:59;24.33;;;22.60;;
13967;SDS011;39536;52.198;9.920;2023-09-12T09:17:47;25.73;;;23.50;;
13967;SDS011;39536;52.198;9.920;2023-09-12T09:20:21;22.80;;;20.83;;
13967;SDS011;39536;52.198;9.920;2023-09-12T09:22:55;20.90;;;19.30;;
13967;SDS011;39536;52.198;9.920;2023-09-12T09:25:23;20.53;;;19.00;;
13967;SDS011;39536;52.198;9.920;2023-09-12T09:27:50;18.07;;;16.40;;
13967;SDS011;39536;52.198;9.920;2023-09-12T09:30:16;17.77;;;16.47;;
13967;SDS011;39536;52.198;9.920;2023-09-12T09:32:43;18.67;;;17.23;;
13967;SDS011;39536;52.198;9.920;2023-09-12T09:35:13;17.23;;;16.03;;
13967;SDS011;39536;52.198;9.920;2023-09-12T09:37:40;12.57;;;11.60;;
13967;SDS011;39536;52.198;9.920;2023-09-12T09:40:08;13.53;;;12.43;;
13967;SDS011;39536;52.198;9.920;2023-09-12T09:42:36;12.73;;;11.83;;
13967;SDS011;39536;52.198;9.920;2023-09-12T09:45:04;12.20;;;11.37;;
13967;SDS011;39536;52.198;9.920;2023-09-12T09:47:31;11.10;;;10.20;;
13967;SDS011;39536;52.198;9.920;2023-09-12T09:49:58;9.70;;;8.80;;
13967;SDS011;39536;52.198;9.920;2023-09-12T09:52:26;7.43;;;6.93;;
13967;SDS011;39536;52.198;9.920;2023-09-12T09:54:53;6.93;;;6.40;;
13967;SDS011;39536;52.198;9.920;2023-09-12T09:57:20;6.43;;;6.03;;
13967;SDS011;39536;52.198;9.920;2023-09-12T09:59:48;6.40;;;5.90;;
13967;SDS011;39536;52.198;9.920;2023-09-12T10:02:17;6.80;;;6.17;;
13967;SDS011;39536;52.198;9.920;2023-09-12T10:04:47;6.20;;;5.70;;
13967;SDS011;39536;52.198;9.920;2023-09-12T10:07:15;6.57;;;6.17;;
13967;SDS011;39536;52.198;9.920;2023-09-12T10:09:44;6.53;;;5.90;;
13967;SDS011;39536;52.198;9.920;2023-09-12T10:12:11;6.87;;;6.30;;
13967;SDS011;39536;52.198;9.920;2023-09-12T10:14:39;6.70;;;6.20;;
13967;SDS011;39536;52.198;9.920;2023-09-12T10:17:06;7.23;;;6.53;;
13967;SDS011;39536;52.198;9.920;2023-09-12T10:19:35;6.77;;;6.33;;
13967;SDS011;39536;52.198;9.920;2023-09-12T10:22:06;6.30;;;5.90;;
13967;SDS011;39536;52.198;9.920;2023-09-12T10:24:45;6.37;;;5.97;;
13967;SDS011;39536;52.198;9.920;2023-09-12T10:27:12;8.23;;;6.70;;
13967;SDS011;39536;52.198;9.920;2023-09-12T10:29:39;6.47;;;5.87;;
13967;SDS011;39536;52.198;9.920;2023-09-12T10:32:06;6.43;;;5.97;;
13967;SDS011;39536;52.198;9.920;2023-09-12T10:34:34;6.50;;;6.10;;
13967;SDS011;39536;52.198;9.920;2023-09-12T10:37:03;10.37;;;6.37;;
13967;SDS011;39536;52.198;9.920;2023-09-12T10:39:31;6.60;;;6.20;;
13967;SDS011;39536;52.198;9.920;2023-09-12T10:42:00;6.03;;;5.67;;
13967;SDS011;39536;52.198;9.920;2023-09-12T10:44:30;6.10;;;5.80;;
13967;SDS011;39536;52.198;9.920;2023-09-12T10:46:58;6.00;;;5.70;;
13967;SDS011;39536;52.198;9.920;2023-09-12T10:49:25;7.00;;;6.50;;
13967;SDS011;39536;52.198;9.920;2023-09-12T10:51:51;6.40;;;5.90;;
13967;SDS011;39536;52.198;9.920;2023-09-12T10:54:23;6.20;;;5.80;;
13967;SDS011;39536;52.198;9.920;2023-09-12T10:57:03;7.17;;;6.57;;
13967;SDS011;39536;52.198;9.920;2023-09-12T10:59:30;6.33;;;6.03;;
13967;SDS011;39536;52.198;9.920;2023-09-12T11:05:02;7.47;;;6.87;;
13967;SDS011;39536;52.198;9.920;2023-09-12T11:07:30;7.67;;;7.17;;
13967;SDS011;39536;52.198;9.920;2023-09-12T11:10:15;7.30;;;6.80;;
13967;SDS011;39536;52.198;9.920;2023-09-12T11:12:45;7.20;;;6.73;;
13967;SDS011;39536;52.198;9.920;2023-09-12T11:15:13;6.77;;;6.27;;
13967;SDS011;39536;52.198;9.920;2023-09-12T11:17:41;7.10;;;6.70;;
13967;SDS011;39536;52.198;9.920;2023-09-12T11:20:09;7.83;;;7.20;;
13967;SDS011;39536;52.198;9.920;2023-09-12T11:22:37;7.47;;;6.87;;
13967;SDS011;39536;52.198;9.920;2023-09-12T11:25:06;7.47;;;6.50;;
13967;SDS011;39536;52.198;9.920;2023-09-12T11:28:02;7.63;;;7.13;;
13967;SDS011;39536;52.198;9.920;2023-09-12T11:30:30;6.93;;;6.50;;
13967;SDS011;39536;52.198;9.920;2023-09-12T11:32:57;7.03;;;6.60;;
13967;SDS011;39536;52.198;9.920;2023-09-12T11:35:26;7.67;;;7.27;;
13967;SDS011;39536;52.198;9.920;2023-09-12T11:37:54;8.20;;;7.70;;
13967;SDS011;39536;52.198;9.920;2023-09-12T11:40:22;8.57;;;7.97;;
13967;SDS011;39536;52.198;9.920;2023-09-12T11:42:52;7.93;;;7.33;;
13967;SDS011;39536;52.198;9.920;2023-09-12T11:45:19;9.50;;;8.80;;
13967;SDS011;39536;52.198;9.920;2023-09-12T11:47:48;10.03;;;9.23;;
13967;SDS011;39536;52.198;9.920;2023-09-12T11:50:28;9.40;;;8.70;;
13967;SDS011;39536;52.198;9.920;2023-09-12T11:53:00;9.27;;;8.67;;
13967;SDS011;39536;52.198;9.920;2023-09-12T11:55:30;10.17;;;9.57;;
13967;SDS011;39536;52.198;9.920;2023-09-12T11:57:59;9.97;;;9.20;;
13967;SDS011;39536;52.198;9.920;2023-09-12T12:00:25;10.10;;;9.30;;
13967;SDS011;39536;52.198;9.920;2023-09-12T12:02:53;9.40;;;8.70;;
13967;SDS011;39536;52.198;9.920;2023-09-12T12:05:20;9.07;;;8.27;;
13967;SDS011;39536;52.198;9.920;2023-09-12T12:07:47;9.57;;;8.97;;
13967;SDS011;39536;52.198;9.920;2023-09-12T12:10:14;8.10;;;7.60;;
13967;SDS011;39536;52.198;9.920;2023-09-12T12:12:42;8.30;;;7.80;;
13967;SDS011;39536;52.198;9.920;2023-09-12T12:15:12;9.27;;;8.57;;
13967;SDS011;39536;52.198;9.920;2023-09-12T12:17:42;9.63;;;8.13;;
13967;SDS011;39536;52.198;9.920;2023-09-12T12:20:09;8.13;;;7.47;;
13967;SDS011;39536;52.198;9.920;2023-09-12T12:22:40;7.90;;;7.10;;
13967;SDS011;39536;52.198;9.920;2023-09-12T12:25:07;7.00;;;6.50;;
13967;SDS011;39536;52.198;9.920;2023-09-12T12:27:35;6.80;;;6.40;;
13967;SDS011;39536;52.198;9.920;2023-09-12T12:30:03;7.00;;;6.27;;
13967;SDS011;39536;52.198;9.920;2023-09-12T12:32:32;6.53;;;6.23;;
13967;SDS011;39536;52.198;9.920;2023-09-12T12:34:59;6.77;;;6.37;;
13967;SDS011;39536;52.198;9.920;2023-09-12T12:37:28;7.60;;;6.77;;
13967;SDS011;39536;52.198;9.920;2023-09-12T12:39:59;7.17;;;6.77;;
13967;SDS011;39536;52.198;9.920;2023-09-12T12:42:32;7.40;;;6.90;;
13967;SDS011;39536;52.198;9.920;2023-09-12T12:45:00;7.03;;;6.57;;
13967;SDS011;39536;52.198;9.920;2023-09-12T12:47:28;8.30;;;7.53;;
13967;SDS011;39536;52.198;9.920;2023-09-12T12:49:57;10.67;;;9.87;;
13967;SDS011;39536;52.198;9.920;2023-09-12T12:52:24;8.40;;;7.90;;
13967;SDS011;39536;52.198;9.920;2023-09-12T12:54:51;9.70;;;8.97;;
13967;SDS011;39536;52.198;9.920;2023-09-12T12:57:19;23.53;;;21.73;;
13967;SDS011;39536;52.198;9.920;2023-09-12T12:59:47;11.00;;;10.00;;
13967;SDS011;39536;52.198;9.920;2023-09-12T13:02:16;11.13;;;10.17;;
13967;SDS011;39536;52.198;9.920;2023-09-12T13:04:44;9.67;;;9.07;;
13967;SDS011;39536;52.198;9.920;2023-09-12T13:07:12;9.70;;;9.00;;
13967;SDS011;39536;52.198;9.920;2023-09-12T13:09:39;12.30;;;11.30;;
13967;SDS011;39536;52.198;9.920;2023-09-12T13:12:07;12.10;;;10.93;;
13967;SDS011;39536;52.198;9.920;2023-09-12T13:14:34;11.93;;;10.77;;
13967;SDS011;39536;52.198;9.920;2023-09-12T13:17:01;11.00;;;10.07;;
13967;SDS011;39536;52.198;9.920;2023-09-12T13:19:28;13.10;;;12.27;;
13967;SDS011;39536;52.198;9.920;2023-09-12T13:21:54;11.03;;;10.03;;
13967;SDS011;39536;52.198;9.920;2023-09-12T13:24:23;9.60;;;9.00;;
13967;SDS011;39536;52.198;9.920;2023-09-12T13:26:49;9.63;;;8.93;;
13967;SDS011;39536;52.198;9.920;2023-09-12T13:29:16;8.67;;;8.07;;
13967;SDS011;39536;52.198;9.920;2023-09-12T13:31:43;9.07;;;8.37;;
13967;SDS011;39536;52.198;9.920;2023-09-12T13:34:09;8.90;;;8.30;;
13967;SDS011;39536;52.198;9.920;2023-09-12T13:36:36;9.33;;;8.73;;
13967;SDS011;39536;52.198;9.920;2023-09-12T13:39:03;8.90;;;8.30;;
13967;SDS011;39536;52.198;9.920;2023-09-12T13:41:33;8.10;;;7.60;;
13967;SDS011;39536;52.198;9.920;2023-09-12T13:44:00;8.70;;;7.87;;
13967;SDS011;39536;52.198;9.920;2023-09-12T13:46:26;8.80;;;8.30;;
13967;SDS011;39536;52.198;9.920;2023-09-12T13:48:54;8.47;;;7.97;;
13967;SDS011;39536;52.198;9.920;2023-09-12T13:51:22;7.63;;;7.13;;
13967;SDS011;39536;52.198;9.920;2023-09-12T13:53:48;7.57;;;7.07;;
13967;SDS011;39536;52.198;9.920;2023-09-12T13:56:15;6.67;;;6.27;;
13967;SDS011;39536;52.198;9.920;2023-09-12T13:58:43;6.53;;;6.13;;
13967;SDS011;39536;52.198;9.920;2023-09-12T14:01:10;5.93;;;5.53;;
13967;SDS011;39536;52.198;9.920;2023-09-12T14:03:37;6.17;;;5.77;;
13967;SDS011;39536;52.198;9.920;2023-09-12T14:06:03;4.63;;;4.33;;
13967;SDS011;39536;52.198;9.920;2023-09-12T14:08:30;4.27;;;3.97;;
13967;SDS011;39536;52.198;9.920;2023-09-12T14:10:57;3.53;;;3.33;;
13967;SDS011;39536;52.198;9.920;2023-09-12T14:13:23;3.27;;;3.03;;
13967;SDS011;39536;52.198;9.920;2023-09-12T14:15:51;4.70;;;3.97;;
13967;SDS011;39536;52.198;9.920;2023-09-12T14:18:18;5.20;;;4.80;;
13967;SDS011;39536;52.198;9.920;2023-09-12T14:20:45;4.13;;;3.93;;
13967;SDS011;39536;52.198;9.920;2023-09-12T14:23:12;3.97;;;3.73;;
13967;SDS011;39536;52.198;9.920;2023-09-12T14:25:39;4.53;;;4.30;;
13967;SDS011;39536;52.198;9.920;2023-09-12T14:28:05;3.90;;;3.70;;
13967;SDS011;39536;52.198;9.920;2023-09-12T14:30:32;4.90;;;4.60;;
13967;SDS011;39536;52.198;9.920;2023-09-12T14:33:02;4.13;;;3.90;;
13967;SDS011;39536;52.198;9.920;2023-09-12T14:35:29;4.47;;;4.17;;
13967;SDS011;39536;52.198;9.920;2023-09-12T14:37:56;4.27;;;3.97;;
13967;SDS011;39536;52.198;9.920;2023-09-12T14:40:23;3.90;;;3.70;;
13967;SDS011;39536;52.198;9.920;2023-09-12T14:42:51;25.00;;;9.93;;
13967;SDS011;39536;52.198;9.920;2023-09-12T14:45:18;5.70;;;5.30;;
13967;SDS011;39536;52.198;9.920;2023-09-12T14:47:45;4.80;;;4.50;;
13967;SDS011;39536;52.198;9.920;2023-09-12T14:50:13;4.27;;;3.97;;
13967;SDS011;39536;52.198;9.920;2023-09-12T14:52:40;4.47;;;4.17;;
13967;SDS011;39536;52.198;9.920;2023-09-12T14:55:08;3.90;;;3.60;;
13967;SDS011;39536;52.198;9.920;2023-09-12T14:57:35;4.00;;;3.80;;
13967;SDS011;39536;52.198;9.920;2023-09-12T15:00:02;4.00;;;3.67;;
13967;SDS011;39536;52.198;9.920;2023-09-12T15:02:29;4.93;;;4.53;;
13967;SDS011;39536;52.198;9.920;2023-09-12T15:04:57;4.90;;;4.60;;
13967;SDS011;39536;52.198;9.920;2023-09-12T15:07:26;4.73;;;4.47;;
13967;SDS011;39536;52.198;9.920;2023-09-12T15:09:54;4.73;;;4.33;;
13967;SDS011;39536;52.198;9.920;2023-09-12T15:12:21;4.30;;;4.10;;